sensor_id;sensor_type;location;lat;lon;timestamp;P1;durP1;ratioP1;P2;durP2;ratioP2
75456;SDS011;64036;48.266;14.192;2023-04-06T00:00:02;3.80;;;2.10;;
75456;SDS011;64036;48.266;14.192;2023-04-06T00:02:58;2.70;;;1.70;;
75456;SDS011;64036;48.266;14.192;2023-04-06T00:05:45;5.10;;;2.50;;
75456;SDS011;64036;48.266;14.192;2023-04-06T00:12:14;4.70;;;2.20;;
75456;SDS011;64036;48.266;14.192;2023-04-06T00:15:20;3.20;;;2.10;;
75456;SDS011;64036;48.266;14.192;2023-04-06T00:18:14;4.10;;;2.20;;
75456;SDS011;64036;48.266;14.192;2023-04-06T00:20:59;4.70;;;2.40;;
75456;SDS011;64036;48.266;14.192;2023-04-06T00:24:11;6.40;;;2.40;;
75456;SDS011;64036;48.266;14.192;2023-04-06T00:27:11;6.30;;;2.20;;
75456;SDS011;64036;48.266;14.192;2023-04-06T00:33:37;3.90;;;2.10;;
75456;SDS011;64036;48.266;14.192;2023-04-06T00:40:11;3.30;;;2.00;;
75456;SDS011;64036;48.266;14.192;2023-04-06T00:46:01;3.90;;;2.10;;
75456;SDS011;64036;48.266;14.192;2023-04-06T00:49:10;3.80;;;2.00;;
75456;SDS011;64036;48.266;14.192;2023-04-06T00:58:27;3.20;;;1.80;;
75456;SDS011;64036;48.266;14.192;2023-04-06T01:08:42;3.10;;;2.10;;
75456;SDS011;64036;48.266;14.192;2023-04-06T01:22:38;6.10;;;2.20;;
75456;SDS011;64036;48.266;14.192;2023-04-06T01:25:21;5.10;;;2.60;;
75456;SDS011;64036;48.266;14.192;2023-04-06T01:28:40;2.80;;;1.80;;
75456;SDS011;64036;48.266;14.192;2023-04-06T01:34:40;3.60;;;2.00;;
75456;SDS011;64036;48.266;14.192;2023-04-06T01:37:35;2.40;;;1.80;;
75456;SDS011;64036;48.266;14.192;2023-04-06T01:44:13;3.70;;;1.80;;
75456;SDS011;64036;48.266;14.192;2023-04-06T01:50:51;4.20;;;2.00;;
75456;SDS011;64036;48.266;14.192;2023-04-06T01:54:01;2.60;;;1.80;;
75456;SDS011;64036;48.266;14.192;2023-04-06T02:10:39;3.40;;;1.90;;
75456;SDS011;64036;48.266;14.192;2023-04-06T02:14:03;2.70;;;1.90;;
75456;SDS011;64036;48.266;14.192;2023-04-06T02:17:35;4.10;;;1.90;;
75456;SDS011;64036;48.266;14.192;2023-04-06T02:20:51;4.00;;;2.10;;
75456;SDS011;64036;48.266;14.192;2023-04-06T02:27:42;5.70;;;2.70;;
75456;SDS011;64036;48.266;14.192;2023-04-06T02:38:10;5.70;;;2.60;;
75456;SDS011;64036;48.266;14.192;2023-04-06T02:41:09;5.20;;;2.90;;
75456;SDS011;64036;48.266;14.192;2023-04-06T02:44:10;7.20;;;3.30;;
75456;SDS011;64036;48.266;14.192;2023-04-06T02:47:17;5.40;;;3.10;;
75456;SDS011;64036;48.266;14.192;2023-04-06T03:03:52;7.90;;;3.40;;
75456;SDS011;64036;48.266;14.192;2023-04-06T03:10:34;4.00;;;2.00;;
75456;SDS011;64036;48.266;14.192;2023-04-06T03:13:31;3.80;;;2.10;;
75456;SDS011;64036;48.266;14.192;2023-04-06T03:16:32;4.70;;;2.40;;
75456;SDS011;64036;48.266;14.192;2023-04-06T03:23:02;8.80;;;3.60;;
75456;SDS011;64036;48.266;14.192;2023-04-06T03:56:11;4.60;;;2.30;;
75456;SDS011;64036;48.266;14.192;2023-04-06T04:20:35;7.30;;;3.60;;
75456;SDS011;64036;48.266;14.192;2023-04-06T04:23:56;7.80;;;3.70;;
75456;SDS011;64036;48.266;14.192;2023-04-06T04:44:23;6.50;;;3.60;;
75456;SDS011;64036;48.266;14.192;2023-04-06T04:51:20;6.10;;;3.30;;
75456;SDS011;64036;48.266;14.192;2023-04-06T04:54:07;9.20;;;4.20;;
75456;SDS011;64036;48.266;14.192;2023-04-06T05:04:33;8.40;;;3.90;;
75456;SDS011;64036;48.266;14.192;2023-04-06T05:07:37;7.30;;;3.90;;
75456;SDS011;64036;48.266;14.192;2023-04-06T05:10:25;7.90;;;4.30;;
75456;SDS011;64036;48.266;14.192;2023-04-06T05:13:04;7.30;;;4.60;;
75456;SDS011;64036;48.266;14.192;2023-04-06T05:15:37;9.90;;;4.50;;
75456;SDS011;64036;48.266;14.192;2023-04-06T05:18:08;6.70;;;3.90;;
75456;SDS011;64036;48.266;14.192;2023-04-06T05:20:46;7.90;;;4.40;;
75456;SDS011;64036;48.266;14.192;2023-04-06T05:23:15;6.60;;;4.00;;
75456;SDS011;64036;48.266;14.192;2023-04-06T05:25:57;7.40;;;4.60;;
75456;SDS011;64036;48.266;14.192;2023-04-06T05:28:28;7.60;;;4.00;;
75456;SDS011;64036;48.266;14.192;2023-04-06T05:31:12;8.20;;;4.30;;
75456;SDS011;64036;48.266;14.192;2023-04-06T05:33:46;7.00;;;3.60;;
75456;SDS011;64036;48.266;14.192;2023-04-06T05:36:27;7.10;;;4.10;;
75456;SDS011;64036;48.266;14.192;2023-04-06T05:39:07;8.30;;;4.70;;
75456;SDS011;64036;48.266;14.192;2023-04-06T05:41:48;7.80;;;3.70;;
75456;SDS011;64036;48.266;14.192;2023-04-06T05:44:14;5.70;;;3.30;;
75456;SDS011;64036;48.266;14.192;2023-04-06T05:46:40;10.50;;;4.40;;
75456;SDS011;64036;48.266;14.192;2023-04-06T05:49:06;7.60;;;4.10;;
75456;SDS011;64036;48.266;14.192;2023-04-06T05:51:42;6.00;;;3.50;;
75456;SDS011;64036;48.266;14.192;2023-04-06T05:54:41;6.20;;;3.30;;
75456;SDS011;64036;48.266;14.192;2023-04-06T05:57:22;6.80;;;3.90;;
75456;SDS011;64036;48.266;14.192;2023-04-06T06:00:20;7.30;;;3.50;;
75456;SDS011;64036;48.266;14.192;2023-04-06T06:03:07;5.60;;;3.10;;
75456;SDS011;64036;48.266;14.192;2023-04-06T06:09:06;6.80;;;3.50;;
75456;SDS011;64036;48.266;14.192;2023-04-06T06:11:59;10.80;;;4.40;;
75456;SDS011;64036;48.266;14.192;2023-04-06T06:14:43;8.90;;;4.20;;
75456;SDS011;64036;48.266;14.192;2023-04-06T06:17:12;7.10;;;4.10;;
75456;SDS011;64036;48.266;14.192;2023-04-06T06:19:40;7.40;;;4.20;;
75456;SDS011;64036;48.266;14.192;2023-04-06T06:22:12;5.80;;;3.60;;
75456;SDS011;64036;48.266;14.192;2023-04-06T06:25:24;8.00;;;4.20;;
75456;SDS011;64036;48.266;14.192;2023-04-06T06:28:24;6.40;;;3.90;;
75456;SDS011;64036;48.266;14.192;2023-04-06T06:33:58;5.70;;;3.40;;
75456;SDS011;64036;48.266;14.192;2023-04-06T06:36:48;6.60;;;3.40;;
75456;SDS011;64036;48.266;14.192;2023-04-06T06:39:34;7.30;;;3.30;;
75456;SDS011;64036;48.266;14.192;2023-04-06T06:42:21;6.40;;;3.90;;
75456;SDS011;64036;48.266;14.192;2023-04-06T06:45:28;5.60;;;3.40;;
75456;SDS011;64036;48.266;14.192;2023-04-06T06:54:30;5.80;;;3.00;;
75456;SDS011;64036;48.266;14.192;2023-04-06T06:57:28;8.00;;;3.70;;
75456;SDS011;64036;48.266;14.192;2023-04-06T07:00:21;6.90;;;3.60;;
75456;SDS011;64036;48.266;14.192;2023-04-06T07:03:21;5.20;;;3.10;;
75456;SDS011;64036;48.266;14.192;2023-04-06T07:08:41;7.30;;;3.70;;
75456;SDS011;64036;48.266;14.192;2023-04-06T07:11:10;6.60;;;3.90;;
75456;SDS011;64036;48.266;14.192;2023-04-06T07:13:58;7.60;;;4.40;;
75456;SDS011;64036;48.266;14.192;2023-04-06T07:16:48;6.80;;;3.60;;
75456;SDS011;64036;48.266;14.192;2023-04-06T07:22:10;6.90;;;4.10;;
75456;SDS011;64036;48.266;14.192;2023-04-06T07:24:48;6.20;;;4.00;;
75456;SDS011;64036;48.266;14.192;2023-04-06T07:27:14;8.00;;;4.20;;
75456;SDS011;64036;48.266;14.192;2023-04-06T07:29:57;8.10;;;4.50;;
75456;SDS011;64036;48.266;14.192;2023-04-06T07:32:49;7.20;;;3.70;;
75456;SDS011;64036;48.266;14.192;2023-04-06T07:35:19;6.60;;;4.00;;
75456;SDS011;64036;48.266;14.192;2023-04-06T07:38:25;10.50;;;4.40;;
75456;SDS011;64036;48.266;14.192;2023-04-06T07:41:14;8.30;;;4.40;;
75456;SDS011;64036;48.266;14.192;2023-04-06T07:43:53;7.60;;;4.00;;
75456;SDS011;64036;48.266;14.192;2023-04-06T07:46:22;6.50;;;3.70;;
75456;SDS011;64036;48.266;14.192;2023-04-06T07:48:57;7.50;;;4.10;;
75456;SDS011;64036;48.266;14.192;2023-04-06T07:51:38;6.20;;;4.20;;
75456;SDS011;64036;48.266;14.192;2023-04-06T07:54:35;7.30;;;4.10;;
75456;SDS011;64036;48.266;14.192;2023-04-06T07:57:14;8.80;;;4.60;;
75456;SDS011;64036;48.266;14.192;2023-04-06T07:59:53;7.60;;;4.40;;
75456;SDS011;64036;48.266;14.192;2023-04-06T08:02:22;9.00;;;5.50;;
75456;SDS011;64036;48.266;14.192;2023-04-06T08:04:52;9.70;;;4.60;;
75456;SDS011;64036;48.266;14.192;2023-04-06T08:07:20;6.60;;;4.10;;
75456;SDS011;64036;48.266;14.192;2023-04-06T08:09:46;7.50;;;4.40;;
75456;SDS011;64036;48.266;14.192;2023-04-06T08:12:12;8.10;;;4.90;;
75456;SDS011;64036;48.266;14.192;2023-04-06T08:17:27;8.40;;;5.10;;
75456;SDS011;64036;48.266;14.192;2023-04-06T08:19:58;7.60;;;4.80;;
75456;SDS011;64036;48.266;14.192;2023-04-06T08:22:27;7.10;;;4.60;;
75456;SDS011;64036;48.266;14.192;2023-04-06T08:27:27;7.40;;;5.00;;
75456;SDS011;64036;48.266;14.192;2023-04-06T08:29:53;7.90;;;4.80;;
75456;SDS011;64036;48.266;14.192;2023-04-06T08:32:21;10.30;;;5.00;;
75456;SDS011;64036;48.266;14.192;2023-04-06T08:34:47;8.80;;;4.90;;
75456;SDS011;64036;48.266;14.192;2023-04-06T08:37:12;7.90;;;5.20;;
75456;SDS011;64036;48.266;14.192;2023-04-06T08:39:38;7.90;;;4.80;;
75456;SDS011;64036;48.266;14.192;2023-04-06T08:42:04;8.10;;;4.30;;
75456;SDS011;64036;48.266;14.192;2023-04-06T08:44:32;6.70;;;4.20;;
75456;SDS011;64036;48.266;14.192;2023-04-06T08:46:59;7.30;;;4.30;;
75456;SDS011;64036;48.266;14.192;2023-04-06T08:49:25;6.90;;;4.90;;
75456;SDS011;64036;48.266;14.192;2023-04-06T08:51:51;6.40;;;4.40;;
75456;SDS011;64036;48.266;14.192;2023-04-06T08:54:17;7.30;;;4.20;;
75456;SDS011;64036;48.266;14.192;2023-04-06T08:56:43;7.10;;;4.30;;
75456;SDS011;64036;48.266;14.192;2023-04-06T08:59:09;7.30;;;4.00;;
75456;SDS011;64036;48.266;14.192;2023-04-06T09:01:39;6.20;;;3.90;;
75456;SDS011;64036;48.266;14.192;2023-04-06T09:04:07;6.20;;;4.10;;
75456;SDS011;64036;48.266;14.192;2023-04-06T09:06:36;7.40;;;3.70;;
75456;SDS011;64036;48.266;14.192;2023-04-06T09:09:03;6.50;;;4.20;;
75456;SDS011;64036;48.266;14.192;2023-04-06T09:11:28;7.20;;;4.50;;
75456;SDS011;64036;48.266;14.192;2023-04-06T09:13:55;6.30;;;3.90;;
75456;SDS011;64036;48.266;14.192;2023-04-06T09:16:22;6.30;;;3.70;;
75456;SDS011;64036;48.266;14.192;2023-04-06T09:18:49;6.20;;;4.00;;
75456;SDS011;64036;48.266;14.192;2023-04-06T09:21:19;5.10;;;3.50;;
75456;SDS011;64036;48.266;14.192;2023-04-06T09:23:45;5.70;;;3.40;;
75456;SDS011;64036;48.266;14.192;2023-04-06T09:26:17;6.00;;;3.50;;
75456;SDS011;64036;48.266;14.192;2023-04-06T09:28:47;5.60;;;2.90;;
75456;SDS011;64036;48.266;14.192;2023-04-06T09:31:15;6.00;;;2.80;;
75456;SDS011;64036;48.266;14.192;2023-04-06T09:33:44;5.80;;;3.40;;
75456;SDS011;64036;48.266;14.192;2023-04-06T09:36:11;5.20;;;3.00;;
75456;SDS011;64036;48.266;14.192;2023-04-06T09:38:52;5.30;;;3.30;;
75456;SDS011;64036;48.266;14.192;2023-04-06T09:41:27;5.70;;;3.30;;
75456;SDS011;64036;48.266;14.192;2023-04-06T09:46:32;6.20;;;3.20;;
75456;SDS011;64036;48.266;14.192;2023-04-06T09:49:05;5.80;;;3.60;;
75456;SDS011;64036;48.266;14.192;2023-04-06T09:51:45;5.00;;;2.80;;
75456;SDS011;64036;48.266;14.192;2023-04-06T09:54:20;5.90;;;3.30;;
75456;SDS011;64036;48.266;14.192;2023-04-06T09:56:56;7.10;;;3.10;;
75456;SDS011;64036;48.266;14.192;2023-04-06T10:02:53;5.30;;;2.70;;
75456;SDS011;64036;48.266;14.192;2023-04-06T10:08:09;5.10;;;3.00;;
75456;SDS011;64036;48.266;14.192;2023-04-06T10:10:35;5.90;;;2.70;;
75456;SDS011;64036;48.266;14.192;2023-04-06T10:13:02;4.00;;;2.50;;
75456;SDS011;64036;48.266;14.192;2023-04-06T10:15:29;4.60;;;2.40;;
75456;SDS011;64036;48.266;14.192;2023-04-06T10:17:57;6.60;;;3.30;;
75456;SDS011;64036;48.266;14.192;2023-04-06T10:20:34;6.30;;;3.50;;
75456;SDS011;64036;48.266;14.192;2023-04-06T10:23:15;8.20;;;3.00;;
75456;SDS011;64036;48.266;14.192;2023-04-06T10:25:57;4.70;;;2.70;;
75456;SDS011;64036;48.266;14.192;2023-04-06T10:28:24;8.10;;;2.90;;
75456;SDS011;64036;48.266;14.192;2023-04-06T10:30:57;5.70;;;3.20;;
75456;SDS011;64036;48.266;14.192;2023-04-06T10:33:24;6.50;;;3.10;;
75456;SDS011;64036;48.266;14.192;2023-04-06T10:35:49;6.40;;;3.10;;
75456;SDS011;64036;48.266;14.192;2023-04-06T10:38:15;4.50;;;2.80;;
75456;SDS011;64036;48.266;14.192;2023-04-06T10:40:45;4.80;;;2.60;;
75456;SDS011;64036;48.266;14.192;2023-04-06T10:43:19;6.10;;;2.80;;
75456;SDS011;64036;48.266;14.192;2023-04-06T10:45:55;5.20;;;3.00;;
75456;SDS011;64036;48.266;14.192;2023-04-06T10:48:21;4.80;;;2.70;;
75456;SDS011;64036;48.266;14.192;2023-04-06T10:50:50;4.20;;;2.50;;
75456;SDS011;64036;48.266;14.192;2023-04-06T10:53:26;4.40;;;2.70;;
75456;SDS011;64036;48.266;14.192;2023-04-06T10:55:54;5.40;;;2.90;;
75456;SDS011;64036;48.266;14.192;2023-04-06T10:58:25;4.70;;;2.70;;
75456;SDS011;64036;48.266;14.192;2023-04-06T11:00:52;6.90;;;2.90;;
75456;SDS011;64036;48.266;14.192;2023-04-06T11:03:18;5.50;;;2.60;;
75456;SDS011;64036;48.266;14.192;2023-04-06T11:05:48;4.50;;;2.50;;
75456;SDS011;64036;48.266;14.192;2023-04-06T11:08:29;4.00;;;2.60;;
75456;SDS011;64036;48.266;14.192;2023-04-06T11:11:09;5.70;;;2.90;;
75456;SDS011;64036;48.266;14.192;2023-04-06T11:13:41;5.40;;;2.70;;
75456;SDS011;64036;48.266;14.192;2023-04-06T11:16:16;4.80;;;2.80;;
75456;SDS011;64036;48.266;14.192;2023-04-06T11:18:57;5.40;;;3.00;;
75456;SDS011;64036;48.266;14.192;2023-04-06T11:21:39;5.00;;;3.00;;
75456;SDS011;64036;48.266;14.192;2023-04-06T11:24:12;6.90;;;2.80;;
75456;SDS011;64036;48.266;14.192;2023-04-06T11:26:43;5.90;;;3.30;;
75456;SDS011;64036;48.266;14.192;2023-04-06T11:29:15;5.30;;;2.90;;
75456;SDS011;64036;48.266;14.192;2023-04-06T11:31:50;4.40;;;2.80;;
75456;SDS011;64036;48.266;14.192;2023-04-06T11:34:24;5.00;;;2.80;;
75456;SDS011;64036;48.266;14.192;2023-04-06T11:37:01;4.40;;;2.60;;
75456;SDS011;64036;48.266;14.192;2023-04-06T11:39:31;4.70;;;2.40;;
75456;SDS011;64036;48.266;14.192;2023-04-06T11:42:01;5.20;;;2.90;;
75456;SDS011;64036;48.266;14.192;2023-04-06T11:44:43;5.50;;;2.90;;
75456;SDS011;64036;48.266;14.192;2023-04-06T11:47:12;5.90;;;2.90;;
75456;SDS011;64036;48.266;14.192;2023-04-06T11:49:40;4.80;;;2.60;;
75456;SDS011;64036;48.266;14.192;2023-04-06T11:52:24;4.80;;;2.90;;
75456;SDS011;64036;48.266;14.192;2023-04-06T11:54:54;6.40;;;3.10;;
75456;SDS011;64036;48.266;14.192;2023-04-06T11:57:22;5.60;;;3.10;;
75456;SDS011;64036;48.266;14.192;2023-04-06T11:59:52;5.60;;;3.20;;
75456;SDS011;64036;48.266;14.192;2023-04-06T12:02:18;5.40;;;2.80;;
75456;SDS011;64036;48.266;14.192;2023-04-06T12:04:44;5.90;;;3.20;;
75456;SDS011;64036;48.266;14.192;2023-04-06T12:07:10;5.20;;;3.30;;
75456;SDS011;64036;48.266;14.192;2023-04-06T12:09:36;4.90;;;3.20;;
75456;SDS011;64036;48.266;14.192;2023-04-06T12:12:03;7.90;;;3.30;;
75456;SDS011;64036;48.266;14.192;2023-04-06T12:14:29;5.00;;;3.00;;
75456;SDS011;64036;48.266;14.192;2023-04-06T12:16:57;5.50;;;3.40;;
75456;SDS011;64036;48.266;14.192;2023-04-06T12:19:23;5.50;;;3.00;;
75456;SDS011;64036;48.266;14.192;2023-04-06T12:21:52;5.70;;;3.30;;
75456;SDS011;64036;48.266;14.192;2023-04-06T12:24:22;4.90;;;2.90;;
75456;SDS011;64036;48.266;14.192;2023-04-06T12:26:48;5.50;;;3.10;;
75456;SDS011;64036;48.266;14.192;2023-04-06T12:29:13;5.10;;;3.10;;
75456;SDS011;64036;48.266;14.192;2023-04-06T12:31:44;5.70;;;2.90;;
75456;SDS011;64036;48.266;14.192;2023-04-06T12:34:10;4.50;;;2.70;;
75456;SDS011;64036;48.266;14.192;2023-04-06T12:36:39;5.50;;;3.10;;
75456;SDS011;64036;48.266;14.192;2023-04-06T12:39:05;4.80;;;2.90;;
75456;SDS011;64036;48.266;14.192;2023-04-06T12:41:31;7.10;;;3.40;;
75456;SDS011;64036;48.266;14.192;2023-04-06T12:43:58;5.80;;;3.60;;
75456;SDS011;64036;48.266;14.192;2023-04-06T12:46:24;4.40;;;2.60;;
75456;SDS011;64036;48.266;14.192;2023-04-06T12:48:51;5.10;;;3.10;;
75456;SDS011;64036;48.266;14.192;2023-04-06T12:51:21;5.80;;;3.30;;
75456;SDS011;64036;48.266;14.192;2023-04-06T12:53:47;6.30;;;3.30;;
75456;SDS011;64036;48.266;14.192;2023-04-06T12:56:14;5.30;;;3.50;;
75456;SDS011;64036;48.266;14.192;2023-04-06T12:58:42;6.30;;;2.80;;
75456;SDS011;64036;48.266;14.192;2023-04-06T13:01:09;5.00;;;3.10;;
75456;SDS011;64036;48.266;14.192;2023-04-06T13:03:36;5.40;;;3.30;;
75456;SDS011;64036;48.266;14.192;2023-04-06T13:06:02;5.20;;;3.10;;
75456;SDS011;64036;48.266;14.192;2023-04-06T13:08:28;5.70;;;3.10;;
75456;SDS011;64036;48.266;14.192;2023-04-06T13:10:54;5.10;;;3.00;;
75456;SDS011;64036;48.266;14.192;2023-04-06T13:13:24;4.30;;;2.90;;
75456;SDS011;64036;48.266;14.192;2023-04-06T13:18:18;5.60;;;3.20;;
75456;SDS011;64036;48.266;14.192;2023-04-06T13:20:48;4.40;;;3.00;;
75456;SDS011;64036;48.266;14.192;2023-04-06T13:23:14;4.50;;;2.80;;
75456;SDS011;64036;48.266;14.192;2023-04-06T13:25:43;4.90;;;3.00;;
75456;SDS011;64036;48.266;14.192;2023-04-06T13:28:11;4.80;;;2.80;;
75456;SDS011;64036;48.266;14.192;2023-04-06T13:30:39;6.30;;;2.80;;
75456;SDS011;64036;48.266;14.192;2023-04-06T13:33:05;5.80;;;2.90;;
75456;SDS011;64036;48.266;14.192;2023-04-06T13:35:34;4.30;;;2.60;;
75456;SDS011;64036;48.266;14.192;2023-04-06T13:38:01;5.10;;;3.00;;
75456;SDS011;64036;48.266;14.192;2023-04-06T13:40:26;4.20;;;2.80;;
75456;SDS011;64036;48.266;14.192;2023-04-06T13:42:55;5.00;;;2.80;;
75456;SDS011;64036;48.266;14.192;2023-04-06T13:45:21;4.90;;;2.70;;
75456;SDS011;64036;48.266;14.192;2023-04-06T13:47:47;4.40;;;2.60;;
75456;SDS011;64036;48.266;14.192;2023-04-06T13:50:13;4.40;;;2.80;;
75456;SDS011;64036;48.266;14.192;2023-04-06T13:52:38;5.70;;;3.50;;
75456;SDS011;64036;48.266;14.192;2023-04-06T13:55:07;6.00;;;3.20;;
75456;SDS011;64036;48.266;14.192;2023-04-06T13:57:33;6.20;;;3.00;;
75456;SDS011;64036;48.266;14.192;2023-04-06T13:59:59;4.20;;;2.60;;
75456;SDS011;64036;48.266;14.192;2023-04-06T14:02:25;5.10;;;2.90;;
75456;SDS011;64036;48.266;14.192;2023-04-06T14:04:53;4.40;;;2.90;;
75456;SDS011;64036;48.266;14.192;2023-04-06T14:07:22;4.50;;;2.70;;
75456;SDS011;64036;48.266;14.192;2023-04-06T14:09:48;4.30;;;2.70;;
75456;SDS011;64036;48.266;14.192;2023-04-06T14:12:15;5.00;;;3.10;;
75456;SDS011;64036;48.266;14.192;2023-04-06T14:14:41;5.30;;;3.00;;
75456;SDS011;64036;48.266;14.192;2023-04-06T14:17:07;5.00;;;2.60;;
75456;SDS011;64036;48.266;14.192;2023-04-06T14:19:35;5.30;;;2.90;;
75456;SDS011;64036;48.266;14.192;2023-04-06T14:22:01;5.70;;;3.00;;
75456;SDS011;64036;48.266;14.192;2023-04-06T14:24:27;5.40;;;3.10;;
75456;SDS011;64036;48.266;14.192;2023-04-06T14:26:56;4.60;;;2.90;;
75456;SDS011;64036;48.266;14.192;2023-04-06T14:29:23;4.40;;;2.90;;
75456;SDS011;64036;48.266;14.192;2023-04-06T14:31:52;5.80;;;2.90;;
75456;SDS011;64036;48.266;14.192;2023-04-06T14:34:18;5.40;;;3.10;;
75456;SDS011;64036;48.266;14.192;2023-04-06T14:36:44;7.80;;;3.60;;
75456;SDS011;64036;48.266;14.192;2023-04-06T14:39:10;6.50;;;3.30;;
75456;SDS011;64036;48.266;14.192;2023-04-06T14:41:37;4.70;;;3.10;;
75456;SDS011;64036;48.266;14.192;2023-04-06T14:44:02;5.60;;;3.10;;
75456;SDS011;64036;48.266;14.192;2023-04-06T14:46:29;5.30;;;3.10;;
75456;SDS011;64036;48.266;14.192;2023-04-06T14:48:56;5.50;;;3.40;;
75456;SDS011;64036;48.266;14.192;2023-04-06T14:51:26;4.80;;;3.00;;
75456;SDS011;64036;48.266;14.192;2023-04-06T14:53:53;6.80;;;3.70;;
75456;SDS011;64036;48.266;14.192;2023-04-06T14:56:22;5.20;;;3.20;;
75456;SDS011;64036;48.266;14.192;2023-04-06T14:58:49;6.40;;;3.80;;
75456;SDS011;64036;48.266;14.192;2023-04-06T15:01:19;5.30;;;3.60;;
75456;SDS011;64036;48.266;14.192;2023-04-06T15:03:48;5.10;;;3.00;;
75456;SDS011;64036;48.266;14.192;2023-04-06T15:06:17;6.70;;;3.80;;
75456;SDS011;64036;48.266;14.192;2023-04-06T15:08:49;5.80;;;3.40;;
75456;SDS011;64036;48.266;14.192;2023-04-06T15:11:15;4.20;;;2.70;;
75456;SDS011;64036;48.266;14.192;2023-04-06T15:13:46;5.90;;;3.70;;
75456;SDS011;64036;48.266;14.192;2023-04-06T15:16:12;5.50;;;3.80;;
75456;SDS011;64036;48.266;14.192;2023-04-06T15:18:42;5.00;;;3.20;;
75456;SDS011;64036;48.266;14.192;2023-04-06T15:21:19;7.50;;;3.60;;
75456;SDS011;64036;48.266;14.192;2023-04-06T15:23:48;8.40;;;2.70;;
75456;SDS011;64036;48.266;14.192;2023-04-06T15:26:15;4.60;;;2.50;;
75456;SDS011;64036;48.266;14.192;2023-04-06T15:28:41;5.40;;;2.60;;
75456;SDS011;64036;48.266;14.192;2023-04-06T15:31:16;6.20;;;3.60;;
75456;SDS011;64036;48.266;14.192;2023-04-06T15:33:42;17.10;;;4.20;;
75456;SDS011;64036;48.266;14.192;2023-04-06T15:36:23;8.40;;;3.60;;
75456;SDS011;64036;48.266;14.192;2023-04-06T15:38:54;17.60;;;4.10;;
75456;SDS011;64036;48.266;14.192;2023-04-06T15:41:26;7.80;;;3.60;;
75456;SDS011;64036;48.266;14.192;2023-04-06T15:43:53;8.20;;;3.40;;
75456;SDS011;64036;48.266;14.192;2023-04-06T15:46:20;5.20;;;2.60;;
75456;SDS011;64036;48.266;14.192;2023-04-06T15:48:50;5.00;;;2.70;;
75456;SDS011;64036;48.266;14.192;2023-04-06T15:51:18;5.50;;;3.00;;
75456;SDS011;64036;48.266;14.192;2023-04-06T15:53:56;5.60;;;3.20;;
75456;SDS011;64036;48.266;14.192;2023-04-06T15:56:26;6.10;;;3.20;;
75456;SDS011;64036;48.266;14.192;2023-04-06T15:58:54;8.00;;;3.50;;
75456;SDS011;64036;48.266;14.192;2023-04-06T16:01:20;5.80;;;3.40;;
75456;SDS011;64036;48.266;14.192;2023-04-06T16:03:45;5.30;;;3.20;;
75456;SDS011;64036;48.266;14.192;2023-04-06T16:06:11;6.60;;;3.20;;
75456;SDS011;64036;48.266;14.192;2023-04-06T16:08:39;6.10;;;3.10;;
75456;SDS011;64036;48.266;14.192;2023-04-06T16:11:05;6.10;;;3.20;;
75456;SDS011;64036;48.266;14.192;2023-04-06T16:13:32;5.10;;;3.20;;
75456;SDS011;64036;48.266;14.192;2023-04-06T16:16:06;6.00;;;3.30;;
75456;SDS011;64036;48.266;14.192;2023-04-06T16:18:32;6.00;;;2.80;;
75456;SDS011;64036;48.266;14.192;2023-04-06T16:20:58;4.80;;;2.80;;
75456;SDS011;64036;48.266;14.192;2023-04-06T16:23:29;4.70;;;2.70;;
75456;SDS011;64036;48.266;14.192;2023-04-06T16:26:10;5.90;;;3.20;;
75456;SDS011;64036;48.266;14.192;2023-04-06T16:28:45;5.30;;;2.90;;
75456;SDS011;64036;48.266;14.192;2023-04-06T16:31:19;5.30;;;3.10;;
75456;SDS011;64036;48.266;14.192;2023-04-06T16:33:55;5.30;;;2.90;;
75456;SDS011;64036;48.266;14.192;2023-04-06T16:36:35;7.20;;;3.00;;
75456;SDS011;64036;48.266;14.192;2023-04-06T16:39:20;5.20;;;2.80;;
75456;SDS011;64036;48.266;14.192;2023-04-06T16:42:04;5.70;;;3.10;;
75456;SDS011;64036;48.266;14.192;2023-04-06T16:44:51;4.80;;;2.70;;
75456;SDS011;64036;48.266;14.192;2023-04-06T16:47:33;4.70;;;2.90;;
75456;SDS011;64036;48.266;14.192;2023-04-06T16:50:11;6.80;;;3.20;;
75456;SDS011;64036;48.266;14.192;2023-04-06T16:52:50;4.80;;;3.10;;
75456;SDS011;64036;48.266;14.192;2023-04-06T16:55:37;5.60;;;2.70;;
75456;SDS011;64036;48.266;14.192;2023-04-06T16:58:15;5.20;;;3.10;;
75456;SDS011;64036;48.266;14.192;2023-04-06T17:00:54;6.50;;;3.10;;
75456;SDS011;64036;48.266;14.192;2023-04-06T17:03:20;4.40;;;2.70;;
75456;SDS011;64036;48.266;14.192;2023-04-06T17:05:46;4.70;;;3.00;;
75456;SDS011;64036;48.266;14.192;2023-04-06T17:08:11;4.80;;;2.70;;
75456;SDS011;64036;48.266;14.192;2023-04-06T17:10:38;5.00;;;2.80;;
75456;SDS011;64036;48.266;14.192;2023-04-06T17:13:03;6.60;;;3.30;;
75456;SDS011;64036;48.266;14.192;2023-04-06T17:15:30;5.80;;;3.40;;
75456;SDS011;64036;48.266;14.192;2023-04-06T17:17:56;5.10;;;2.70;;
75456;SDS011;64036;48.266;14.192;2023-04-06T17:20:27;5.70;;;2.90;;
75456;SDS011;64036;48.266;14.192;2023-04-06T17:22:53;5.80;;;2.70;;
75456;SDS011;64036;48.266;14.192;2023-04-06T17:25:35;4.70;;;2.50;;
75456;SDS011;64036;48.266;14.192;2023-04-06T17:28:26;5.30;;;2.90;;
75456;SDS011;64036;48.266;14.192;2023-04-06T17:31:01;7.30;;;2.90;;
75456;SDS011;64036;48.266;14.192;2023-04-06T17:33:27;4.30;;;2.70;;
75456;SDS011;64036;48.266;14.192;2023-04-06T17:35:54;4.90;;;2.90;;
75456;SDS011;64036;48.266;14.192;2023-04-06T17:38:35;5.20;;;2.90;;
75456;SDS011;64036;48.266;14.192;2023-04-06T17:41:00;5.50;;;2.50;;
75456;SDS011;64036;48.266;14.192;2023-04-06T17:43:29;4.50;;;2.60;;
75456;SDS011;64036;48.266;14.192;2023-04-06T17:45:55;4.60;;;2.20;;
75456;SDS011;64036;48.266;14.192;2023-04-06T17:48:21;5.00;;;2.80;;
75456;SDS011;64036;48.266;14.192;2023-04-06T17:50:54;4.50;;;2.40;;
75456;SDS011;64036;48.266;14.192;2023-04-06T17:53:23;5.10;;;2.80;;
75456;SDS011;64036;48.266;14.192;2023-04-06T17:55:49;5.90;;;2.80;;
75456;SDS011;64036;48.266;14.192;2023-04-06T17:58:14;6.20;;;3.10;;
75456;SDS011;64036;48.266;14.192;2023-04-06T18:00:41;4.60;;;2.80;;
75456;SDS011;64036;48.266;14.192;2023-04-06T18:03:06;3.80;;;2.50;;
75456;SDS011;64036;48.266;14.192;2023-04-06T18:05:32;4.70;;;2.40;;
75456;SDS011;64036;48.266;14.192;2023-04-06T18:07:58;5.50;;;2.80;;
75456;SDS011;64036;48.266;14.192;2023-04-06T18:10:25;5.20;;;2.70;;
75456;SDS011;64036;48.266;14.192;2023-04-06T18:12:51;3.90;;;2.50;;
75456;SDS011;64036;48.266;14.192;2023-04-06T18:15:30;4.90;;;2.70;;
75456;SDS011;64036;48.266;14.192;2023-04-06T18:18:04;4.70;;;2.70;;
75456;SDS011;64036;48.266;14.192;2023-04-06T18:20:31;4.90;;;3.00;;
75456;SDS011;64036;48.266;14.192;2023-04-06T18:23:22;6.20;;;2.90;;
75456;SDS011;64036;48.266;14.192;2023-04-06T18:26:30;4.30;;;2.80;;
75456;SDS011;64036;48.266;14.192;2023-04-06T18:29:01;4.80;;;2.40;;
75456;SDS011;64036;48.266;14.192;2023-04-06T18:31:27;3.70;;;2.20;;
75456;SDS011;64036;48.266;14.192;2023-04-06T18:33:58;4.30;;;2.80;;
75456;SDS011;64036;48.266;14.192;2023-04-06T18:36:43;5.10;;;3.00;;
75456;SDS011;64036;48.266;14.192;2023-04-06T18:39:12;4.00;;;2.30;;
75456;SDS011;64036;48.266;14.192;2023-04-06T18:41:38;5.60;;;3.00;;
75456;SDS011;64036;48.266;14.192;2023-04-06T18:44:06;7.90;;;3.20;;
75456;SDS011;64036;48.266;14.192;2023-04-06T18:46:45;6.10;;;2.50;;
75456;SDS011;64036;48.266;14.192;2023-04-06T18:49:14;6.60;;;2.60;;
75456;SDS011;64036;48.266;14.192;2023-04-06T18:55:18;4.90;;;2.50;;